Time;durP1;ratioP1;P1;durP2;ratioP2;P2;SDS_P1;SDS_P2;PMS_P1;PMS_P2;Temp;Humidity;BMP_temperature;BMP_pressure;BME280_temperature;BME280_humidity;BME280_pressure;Samples;Min_cycle;Max_cycle;Signal;HPM_P1;HPM_P2
2021/11/07 00:02:47;;;;;;;;;32.00;26.00;;;;;10.55;44.50;99478.41;6211189;28;97144;-67
2021/11/07 00:05:57;;;;;;;;;30.40;26.80;;;;;10.45;44.72;99477.97;6207440;28;97177;-68
2021/11/07 00:09:07;;;;;;;;;34.60;30.00;;;;;10.39;45.20;99470.72;6162530;28;96744;-66
2021/11/07 00:12:16;;;;;;;;;29.75;28.75;;;;;10.32;45.47;99472.56;6183149;28;96726;-68
2021/11/07 00:15:20;;;;;;;;;31.00;26.20;;;;;10.24;45.16;99470.91;6193756;28;97190;-67
2021/11/07 00:18:28;;;;;;;;;30.00;26.00;;;;;10.22;45.37;99470.25;6211405;28;96636;-67
2021/11/07 00:21:37;;;;;;;;;30.40;27.40;;;;;10.14;44.79;99462.34;6211673;28;97530;-67
2021/11/07 00:24:45;;;;;;;;;32.00;29.00;;;;;10.06;45.22;99441.00;6193490;28;97116;-66
2021/11/07 00:27:50;;;;;;;;;26.40;25.00;;;;;10.00;45.06;99447.19;6211750;28;97436;-66
2021/11/07 00:31:02;;;;;;;;;28.00;26.00;;;;;10.07;45.38;99439.94;6193417;28;96871;-68
2021/11/07 00:37:29;;;;;;;;;31.25;26.00;;;;;10.28;45.34;99423.63;6110103;28;97283;-68
2021/11/07 00:40:40;;;;;;;;;33.00;28.50;;;;;10.37;45.32;99418.88;6111242;28;97614;-68
2021/11/07 00:43:47;;;;;;;;;32.40;28.40;;;;;10.45;45.41;99424.06;6109681;28;97466;-68
2021/11/07 00:46:53;;;;;;;;;28.00;26.40;;;;;10.43;44.99;99405.41;6083580;28;96778;-66
2021/11/07 00:50:00;;;;;;;;;28.40;26.00;;;;;10.59;44.90;99419.50;6110736;28;97661;-67
2021/11/07 00:53:18;;;;;;;;;27.00;25.25;;;;;10.62;44.62;99427.97;6111048;28;96983;-68
2021/11/07 00:59:48;;;;;;;;;24.80;22.20;;;;;10.59;44.43;99408.69;6075007;28;97859;-66
2021/11/07 01:02:57;;;;;;;;;27.00;24.00;;;;;10.59;44.58;99392.53;6108366;28;97690;-68
2021/11/07 01:06:02;;;;;;;;;26.00;24.00;;;;;10.55;44.63;99389.44;6093219;28;99323;-67
2021/11/07 01:09:06;;;;;;;;;27.40;24.00;;;;;10.54;44.84;99386.94;6093744;28;97752;-66
2021/11/07 01:12:11;;;;;;;;;28.00;23.40;;;;;10.55;44.82;99383.19;6086744;28;99171;-68
2021/11/07 01:15:15;;;;;;;;;25.20;22.80;;;;;10.51;44.62;99387.31;6158951;28;96706;-68
2021/11/07 01:18:18;;;;;;;;;22.00;21.00;;;;;10.47;44.99;99378.84;6205079;28;96760;-66
2021/11/07 01:21:25;;;;;;;;;28.00;25.00;;;;;10.40;44.62;99364.56;6208844;28;96847;-66
2021/11/07 01:24:34;;;;;;;;;27.50;24.25;;;;;10.34;44.97;99360.81;6190820;28;97833;-67
2021/11/07 01:27:39;;;;;;;;;28.00;24.00;;;;;10.31;44.79;99353.13;6209261;28;97058;-67
2021/11/07 01:30:48;;;;;;;;;21.40;21.00;;;;;10.28;44.43;99347.34;6195971;28;97089;-68
2021/11/07 01:33:53;;;;;;;;;23.50;20.00;;;;;10.24;44.93;99346.94;6190526;28;97243;-66
2021/11/07 01:37:04;;;;;;;;;24.40;20.40;;;;;10.24;45.06;99346.94;6210340;28;97478;-66
2021/11/07 01:40:11;;;;;;;;;21.25;20.00;;;;;10.22;45.11;99340.91;6210646;28;97101;-68
2021/11/07 01:43:15;;;;;;;;;24.60;22.00;;;;;10.17;45.24;99334.50;6192317;28;96822;-67
2021/11/07 01:46:26;;;;;;;;;23.80;21.00;;;;;10.14;45.27;99337.59;6195338;28;97480;-66
2021/11/07 01:49:35;;;;;;;;;25.40;21.40;;;;;9.81;45.45;99297.19;6214920;28;96429;-68
2021/11/07 01:52:42;;;;;;;;;22.00;20.00;;;;;10.15;45.27;99339.25;6193329;28;98483;-68
2021/11/07 01:55:46;;;;;;;;;24.60;19.00;;;;;10.12;45.00;99334.25;6214217;28;96765;-66
2021/11/07 01:58:49;;;;;;;;;22.00;20.00;;;;;10.09;45.23;99332.00;6212249;28;96729;-66
2021/11/07 02:01:54;;;;;;;;;22.00;20.80;;;;;10.04;45.14;99324.53;6213238;28;96458;-68
2021/11/07 02:04:58;;;;;;;;;25.60;21.80;;;;;10.00;45.16;99329.50;6211833;28;97412;-68
2021/11/07 02:08:03;;;;;;;;;28.00;23.40;;;;;9.95;45.33;99312.31;6194405;28;97114;-66
2021/11/07 02:11:06;;;;;;;;;28.00;25.00;;;;;9.94;45.19;99307.94;6207134;28;96691;-67
2021/11/07 02:14:10;;;;;;;;;26.00;23.00;;;;;9.86;45.21;99298.22;6213610;28;96921;-68
2021/11/07 02:17:14;;;;;;;;;26.60;24.60;;;;;9.84;45.38;99286.81;6196229;28;97395;-68
2021/11/07 02:20:29;;;;;;;;;24.40;23.40;;;;;9.84;45.51;99270.66;6188957;28;98204;-66
2021/11/07 02:23:32;;;;;;;;;26.60;22.60;;;;;9.87;45.60;99278.31;6214166;28;96545;-68
2021/11/07 02:26:36;;;;;;;;;25.00;23.00;;;;;9.84;45.79;99291.38;6181508;28;98410;-67
2021/11/07 02:29:39;;;;;;;;;26.00;22.50;;;;;9.85;45.67;99303.81;6211264;28;97157;-66
2021/11/07 02:32:43;;;;;;;;;22.80;19.40;;;;;9.91;45.52;99295.75;6192576;28;97170;-66
2021/11/07 02:35:48;;;;;;;;;24.00;21.00;;;;;10.02;45.49;99294.25;6212642;28;97596;-68
2021/11/07 02:38:51;;;;;;;;;22.00;20.80;;;;;10.09;45.11;99284.31;6198925;28;97448;-68
2021/11/07 02:41:54;;;;;;;;;24.25;22.25;;;;;10.09;45.09;99291.56;6191531;28;97843;-68
2021/11/07 02:44:57;;;;;;;;;24.00;21.00;;;;;10.10;45.23;99286.00;6212571;28;96593;-66
2021/11/07 02:48:01;;;;;;;;;25.40;22.40;;;;;10.01;45.20;99273.78;6195581;28;97996;-68
2021/11/07 02:51:05;;;;;;;;;23.50;21.00;;;;;10.13;45.23;99273.94;6169972;28;96844;-68
2021/11/07 02:54:09;;;;;;;;;26.60;21.40;;;;;10.07;45.27;99270.22;6196846;28;97127;-66
2021/11/07 02:57:17;;;;;;;;;25.00;22.00;;;;;10.05;45.07;99279.56;6194900;28;98415;-68
2021/11/07 03:00:22;;;;;;;;;27.00;25.00;;;;;9.97;45.35;99261.75;6194385;28;97904;-68
2021/11/07 03:03:26;;;;;;;;;28.40;26.40;;;;;9.94;45.47;99241.44;6211530;28;96976;-68
2021/11/07 03:06:36;;;;;;;;;24.00;21.40;;;;;9.90;45.05;99236.69;6211345;28;97441;-67
2021/11/07 03:09:41;;;;;;;;;27.75;25.25;;;;;9.86;45.28;99251.63;6211361;28;96684;-67
2021/11/07 03:12:47;;;;;;;;;24.50;22.00;;;;;9.84;45.28;99227.59;6211440;28;97467;-68
2021/11/07 03:15:51;;;;;;;;;30.00;25.60;;;;;9.81;45.67;99221.78;6177082;28;97257;-67
2021/11/07 03:18:54;;;;;;;;;25.40;23.60;;;;;9.83;45.40;99233.16;6212980;28;97037;-68
2021/11/07 03:22:01;;;;;;;;;24.67;22.67;;;;;9.71;45.49;99232.16;6212774;28;97105;-66
2021/11/07 03:25:05;;;;;;;;;24.60;23.00;;;;;9.66;45.53;99234.63;6193402;28;97826;-67
2021/11/07 03:28:08;;;;;;;;;29.00;24.60;;;;;9.53;45.73;99232.75;6212674;28;97415;-68
2021/11/07 03:31:15;;;;;;;;;24.33;22.33;;;;;9.46;45.65;99232.78;6168914;28;99497;-68
2021/11/07 03:34:26;;;;;;;;;25.00;22.00;;;;;9.42;45.74;99231.53;6193289;28;97326;-66
2021/11/07 03:37:36;;;;;;;;;25.50;22.00;;;;;9.35;45.84;99211.00;6180816;28;99615;-67
2021/11/07 03:40:40;;;;;;;;;25.50;19.50;;;;;9.37;45.89;99209.78;6194032;28;97524;-68
2021/11/07 03:43:44;;;;;;;;;24.00;21.80;;;;;9.42;45.89;99195.72;6212233;28;97671;-68
2021/11/07 03:46:50;;;;;;;;;22.00;20.00;;;;;9.48;46.00;99206.47;6194272;28;97128;-68
2021/11/07 03:49:54;;;;;;;;;24.00;22.00;;;;;9.57;45.75;99186.41;6212802;28;97596;-67
2021/11/07 03:52:59;;;;;;;;;22.25;20.25;;;;;9.66;45.56;99187.00;6193468;28;97534;-68
2021/11/07 03:56:03;;;;;;;;;21.20;18.80;;;;;9.78;45.48;99188.00;6207414;28;96544;-66
2021/11/07 03:59:07;;;;;;;;;20.80;18.40;;;;;9.89;45.39;99190.06;6208700;28;97565;-67
2021/11/07 04:02:12;;;;;;;;;20.80;18.80;;;;;10.00;45.29;99186.75;6200397;28;97433;-66
2021/11/07 04:05:16;;;;;;;;;17.00;16.00;;;;;10.12;45.20;99183.38;6212573;28;97442;-66
2021/11/07 04:08:20;;;;;;;;;19.25;17.25;;;;;10.18;45.41;99190.66;6211924;28;96655;-66
2021/11/07 04:11:24;;;;;;;;;18.75;16.75;;;;;10.24;45.44;99201.44;6180011;28;98294;-67
2021/11/07 04:14:32;;;;;;;;;18.00;17.00;;;;;10.31;45.47;99206.81;6210134;28;97103;-66
2021/11/07 04:17:37;;;;;;;;;21.80;19.40;;;;;10.32;45.64;99187.72;6211828;28;96565;-68
2021/11/07 04:20:40;;;;;;;;;19.60;18.20;;;;;10.36;45.91;99191.63;6190810;28;97211;-68
2021/11/07 04:23:45;;;;;;;;;25.80;21.80;;;;;10.38;45.91;99194.13;6200768;28;96456;-66
2021/11/07 04:26:48;;;;;;;;;24.00;21.00;;;;;10.41;45.43;99186.44;6189990;28;97164;-66
2021/11/07 04:29:52;;;;;;;;;26.20;23.20;;;;;10.45;45.98;99176.06;6193958;28;96608;-66
2021/11/07 04:32:58;;;;;;;;;24.60;23.60;;;;;10.47;45.55;99170.44;6191573;28;97800;-66
2021/11/07 04:36:01;;;;;;;;;23.60;22.00;;;;;10.54;45.81;99172.09;6191907;28;96862;-67
2021/11/07 04:39:06;;;;;;;;;25.75;21.75;;;;;10.59;45.40;99171.44;6210129;28;96689;-67
2021/11/07 04:42:10;;;;;;;;;26.00;23.00;;;;;10.61;44.81;99167.47;6209245;28;96612;-68
2021/11/07 04:45:14;;;;;;;;;25.00;24.00;;;;;10.64;44.90;99163.53;6209766;28;96433;-68
2021/11/07 04:48:18;;;;;;;;;29.40;26.00;;;;;10.67;45.11;99160.41;6211017;28;97520;-66
2021/11/07 04:51:21;;;;;;;;;28.60;25.00;;;;;10.70;44.82;99152.69;6211616;28;96498;-68
2021/11/07 04:54:26;;;;;;;;;29.00;26.00;;;;;10.74;44.84;99150.41;6202069;28;97565;-66
2021/11/07 04:57:30;;;;;;;;;31.00;26.00;;;;;10.64;44.81;99152.75;6211289;28;97068;-68
2021/11/07 05:00:35;;;;;;;;;30.40;28.00;;;;;10.56;44.83;99144.91;6193742;28;96419;-66
2021/11/07 05:03:38;;;;;;;;;31.20;25.60;;;;;10.52;45.11;99139.13;6193358;28;97549;-66
2021/11/07 05:06:42;;;;;;;;;30.00;26.00;;;;;10.48;45.35;99132.50;6192933;28;96855;-68
2021/11/07 05:09:46;;;;;;;;;32.00;27.50;;;;;10.48;45.77;99115.50;6210928;28;96383;-68
2021/11/07 05:12:49;;;;;;;;;32.60;29.00;;;;;10.41;45.82;99084.00;6210246;28;96377;-68
2021/11/07 05:15:53;;;;;;;;;29.80;26.80;;;;;10.57;45.72;99092.63;6209843;28;96989;-68
2021/11/07 05:18:56;;;;;;;;;34.00;31.00;;;;;10.54;45.44;99090.38;6187791;28;96717;-65
2021/11/07 05:21:59;;;;;;;;;31.60;26.60;;;;;10.45;45.50;99087.13;6185067;28;97342;-67
2021/11/07 05:25:06;;;;;;;;;27.75;26.50;;;;;10.41;45.72;99084.00;6213762;28;97538;-66
2021/11/07 05:28:10;;;;;;;;;30.00;28.40;;;;;10.37;45.82;99077.41;6193888;28;96610;-66
2021/11/07 05:31:13;;;;;;;;;35.00;30.00;;;;;10.33;46.05;99073.50;6207587;28;97927;-67
2021/11/07 05:34:17;;;;;;;;;36.00;30.00;;;;;10.39;45.84;99071.81;6195452;28;99816;-67
2021/11/07 05:37:20;;;;;;;;;34.80;29.00;;;;;10.41;45.75;99065.16;6215287;28;97413;-67
2021/11/07 05:40:25;;;;;;;;;31.00;28.00;;;;;10.46;45.84;99069.88;6189538;28;98378;-68
2021/11/07 05:43:28;;;;;;;;;29.60;27.20;;;;;10.50;45.86;99073.81;6207892;28;97351;-65
2021/11/07 05:46:32;;;;;;;;;34.00;30.00;;;;;10.52;46.06;99071.72;6196343;28;97426;-67
2021/11/07 05:49:35;;;;;;;;;32.60;28.60;;;;;10.56;45.97;99048.66;6187932;28;97510;-68
2021/11/07 05:52:39;;;;;;;;;37.80;30.60;;;;;10.57;45.93;99044.09;6213434;28;97061;-68
2021/11/07 05:55:43;;;;;;;;;33.20;30.00;;;;;10.59;46.13;99039.34;6176495;28;97122;-67
2021/11/07 05:58:47;;;;;;;;;39.00;32.00;;;;;10.60;45.91;99038.31;6179299;28;97648;-67
2021/11/07 06:01:51;;;;;;;;;33.00;29.20;;;;;10.57;45.87;99030.63;6202099;28;96737;-66
2021/11/07 06:04:54;;;;;;;;;37.00;32.00;;;;;10.61;45.80;99026.44;6209063;28;96677;-68
2021/11/07 06:07:57;;;;;;;;;35.60;31.60;;;;;10.60;45.72;99022.94;6193822;28;97347;-65
2021/11/07 06:11:02;;;;;;;;;34.40;30.40;;;;;10.59;45.43;99021.28;6211613;28;96753;-66
2021/11/07 06:14:05;;;;;;;;;31.40;28.40;;;;;10.57;45.53;99023.38;6181553;28;97490;-67
2021/11/07 06:17:08;;;;;;;;;32.00;30.00;;;;;10.58;45.66;99016.94;6205265;28;96715;-68
2021/11/07 06:20:12;;;;;;;;;35.60;30.00;;;;;10.60;45.49;99020.25;6206044;28;97463;-67
2021/11/07 06:23:15;;;;;;;;;29.40;28.40;;;;;10.61;45.93;99035.38;6194039;28;97541;-66
2021/11/07 06:26:20;;;;;;;;;32.20;28.20;;;;;10.67;46.06;99039.06;6209133;28;97376;-65
2021/11/07 06:29:24;;;;;;;;;34.40;30.00;;;;;10.74;46.17;99047.94;6210976;28;97116;-65
2021/11/07 06:32:27;;;;;;;;;36.40;30.00;;;;;11.50;45.05;99035.00;6197954;28;98135;-66
2021/11/07 06:35:31;;;;;;;;;34.00;28.50;;;;;12.03;43.87;99034.41;6210851;28;97453;-65
2021/11/07 06:38:34;;;;;;;;;31.20;27.20;;;;;12.98;41.96;99017.19;6209261;28;98624;-68
2021/11/07 06:41:39;;;;;;;;;34.25;30.00;;;;;14.05;39.89;99016.84;6211614;28;97193;-65
2021/11/07 06:44:42;;;;;;;;;34.20;27.00;;;;;13.82;40.08;99015.03;6184907;28;97064;-68
2021/11/07 06:47:46;;;;;;;;;34.75;29.25;;;;;13.51;40.75;99026.28;6187247;28;97753;-68
2021/11/07 06:50:49;;;;;;;;;33.20;29.20;;;;;13.27;41.31;99018.16;6211627;28;98128;-66
2021/11/07 06:53:52;;;;;;;;;32.80;28.00;;;;;13.14;42.09;99007.59;6210361;28;97150;-66
2021/11/07 06:56:57;;;;;;;;;33.00;30.00;;;;;13.02;42.43;99002.13;6191066;28;98610;-66
2021/11/07 07:00:00;;;;;;;;;32.80;28.80;;;;;12.98;42.52;99008.25;6170819;28;97617;-65
2021/11/07 07:03:04;;;;;;;;;29.00;26.60;;;;;12.97;42.75;99020.13;6192148;28;98437;-68
2021/11/07 07:06:07;;;;;;;;;29.60;27.00;;;;;12.93;42.55;99008.13;6214125;28;96638;-67
2021/11/07 07:09:13;;;;;;;;;31.75;29.75;;;;;12.90;43.09;99006.69;6191038;28;97099;-66
2021/11/07 07:12:25;;;;;;;;;35.80;31.00;;;;;12.94;42.65;99013.31;6197225;28;97518;-66
2021/11/07 07:15:31;;;;;;;;;29.40;27.60;;;;;13.00;42.03;99000.69;6174994;28;97267;-65
2021/11/07 07:18:45;;;;;;;;;37.00;31.00;;;;;12.99;42.77;99018.03;6192881;28;96486;-65
2021/11/07 07:21:58;;;;;;;;;40.60;33.40;;;;;12.97;42.65;99014.72;6194617;28;97126;-64
2021/11/07 07:28:39;;;;;;;;;40.80;34.20;;;;;12.96;43.08;98997.66;6201782;28;97334;-67
2021/11/07 07:35:04;;;;;;;;;35.40;30.40;;;;;12.80;43.24;98995.66;6156542;28;100067;-66
2021/11/07 07:38:07;;;;;;;;;38.00;33.00;;;;;12.69;43.21;98979.38;6188458;28;97575;-66
2021/11/07 07:41:11;;;;;;;;;44.00;34.40;;;;;12.59;43.48;98990.78;6194947;28;96686;-68
2021/11/07 07:44:16;;;;;;;;;38.40;33.00;;;;;12.56;44.08;98975.81;6157323;28;98361;-66
2021/11/07 07:47:21;;;;;;;;;39.50;32.50;;;;;12.60;44.02;98957.28;6179447;28;97926;-66
2021/11/07 07:50:24;;;;;;;;;39.40;32.40;;;;;12.55;44.14;98949.88;6178383;28;97109;-68
2021/11/07 07:53:28;;;;;;;;;37.60;32.00;;;;;12.90;44.01;98951.78;6187367;28;97313;-66
2021/11/07 07:56:32;;;;;;;;;36.00;31.60;;;;;12.97;43.76;98938.94;6193458;28;97270;-66
2021/11/07 07:59:37;;;;;;;;;35.00;31.00;;;;;13.17;43.67;98938.59;6173721;28;96769;-68
2021/11/07 08:02:41;;;;;;;;;34.00;31.00;;;;;13.39;43.45;98932.31;6193445;28;97166;-68
2021/11/07 08:05:45;;;;;;;;;38.40;33.00;;;;;13.69;43.07;98932.13;6172708;28;97545;-68
2021/11/07 08:08:48;;;;;;;;;31.40;27.40;;;;;14.06;41.97;98924.44;6171098;28;97276;-68
2021/11/07 08:11:51;;;;;;;;;27.40;25.00;;;;;14.44;40.79;98926.50;6185246;28;97591;-68
2021/11/07 08:14:57;;;;;;;;;25.00;22.80;;;;;15.10;39.00;98922.13;6204219;28;97484;-66
2021/11/07 08:18:01;;;;;;;;;23.00;21.00;;;;;16.17;37.36;98922.34;6191838;28;97997;-68
2021/11/07 08:21:05;;;;;;;;;22.00;19.80;;;;;16.68;35.60;98920.09;6205312;28;96415;-65
2021/11/07 08:24:10;;;;;;;;;20.00;18.60;;;;;17.41;34.22;98908.31;6193340;28;96698;-65
2021/11/07 08:27:15;;;;;;;;;20.60;19.00;;;;;18.72;31.79;98910.56;6192838;28;96507;-68
2021/11/07 08:30:25;;;;;;;;;22.40;19.60;;;;;20.91;28.58;98914.78;6200359;28;96645;-66
2021/11/07 08:33:28;;;;;;;;;16.75;16.00;;;;;23.12;25.95;98903.81;6192415;28;98087;-65
2021/11/07 08:36:37;;;;;;;;;20.00;18.00;;;;;24.91;23.84;98916.22;6193662;28;97447;-68
2021/11/07 08:39:46;;;;;;;;;16.40;16.00;;;;;25.74;22.61;98898.78;6211769;28;97568;-66
2021/11/07 08:42:52;;;;;;;;;12.00;12.00;;;;;26.20;21.71;98906.47;6211321;28;97427;-66
2021/11/07 09:03:12;;;;;;;;;16.00;14.40;;;;;30.04;17.18;98871.34;6214351;28;97565;-68
2021/11/07 09:09:40;;;;;;;;;13.60;11.60;;;;;29.67;16.84;98850.25;6199866;28;96758;-66
2021/11/07 09:12:45;;;;;;;;;13.00;11.00;;;;;28.50;18.12;98834.28;6189419;28;97779;-68
2021/11/07 09:15:50;;;;;;;;;13.00;12.00;;;;;28.37;18.54;98833.44;6212064;28;96764;-66
2021/11/07 09:18:58;;;;;;;;;13.00;12.00;;;;;29.03;17.45;98825.91;6192473;28;97940;-66
2021/11/07 09:22:06;;;;;;;;;12.67;12.00;;;;;30.02;17.40;98828.34;6195639;28;97433;-66
2021/11/07 09:25:12;;;;;;;;;12.00;11.00;;;;;30.81;16.31;98830.28;6212721;28;97159;-70
2021/11/07 09:28:19;;;;;;;;;12.40;12.40;;;;;31.25;15.86;98825.47;6206837;28;97595;-68
2021/11/07 09:31:34;;;;;;;;;12.00;11.00;;;;;32.08;15.44;98826.25;6214701;28;97849;-70
2021/11/07 09:34:45;;;;;;;;;10.00;9.00;;;;;32.56;14.96;98822.91;6214460;28;97296;-66
2021/11/07 09:37:51;;;;;;;;;14.00;11.00;;;;;32.99;14.97;98802.19;6214894;28;97135;-66
2021/11/07 09:41:12;;;;;;;;;9.75;9.75;;;;;33.40;14.61;98785.75;6198924;28;96687;-66
2021/11/07 09:44:17;;;;;;;;;11.00;10.00;;;;;33.78;14.49;98781.94;6204869;28;96691;-70
2021/11/07 09:47:22;;;;;;;;;11.80;11.00;;;;;33.96;14.31;98760.63;6194477;28;99709;-63
2021/11/07 09:50:27;;;;;;;;;11.80;11.80;;;;;33.35;14.15;98764.50;6195032;28;97162;-69
2021/11/07 09:53:32;;;;;;;;;12.00;11.00;;;;;32.72;15.06;98757.81;6214116;28;96706;-69
2021/11/07 09:56:35;;;;;;;;;13.25;11.25;;;;;32.20;15.06;98743.28;6213104;28;96960;-68
2021/11/07 09:59:39;;;;;;;;;12.00;10.80;;;;;31.60;15.51;98749.50;6208994;28;97343;-67
2021/11/07 10:02:42;;;;;;;;;12.00;10.40;;;;;30.54;16.60;98736.53;6194537;28;97251;-66
2021/11/07 10:05:51;;;;;;;;;11.50;10.00;;;;;29.49;17.46;98733.03;6193536;28;96693;-69
2021/11/07 10:08:54;;;;;;;;;10.00;9.25;;;;;28.41;18.20;98721.50;6207224;28;96879;-66
2021/11/07 10:12:06;;;;;;;;;10.00;9.00;;;;;27.23;19.07;98722.13;6212155;28;97429;-68
2021/11/07 10:15:18;;;;;;;;;12.60;11.00;;;;;26.22;20.13;98712.75;6192057;28;97287;-69
2021/11/07 10:18:24;;;;;;;;;13.00;12.40;;;;;25.56;21.12;98714.88;6193553;28;97141;-65
2021/11/07 10:21:35;;;;;;;;;11.00;10.00;;;;;25.35;21.15;98711.09;6212629;28;96495;-69
2021/11/07 10:24:39;;;;;;;;;13.00;13.00;;;;;24.96;21.70;98712.00;6194719;28;97855;-66
2021/11/07 10:27:47;;;;;;;;;15.40;14.00;;;;;25.15;21.64;98714.47;6194135;28;96639;-67
2021/11/07 10:31:09;;;;;;;;;13.50;13.00;;;;;25.35;21.75;98700.06;6179485;28;98521;-67
2021/11/07 10:34:29;;;;;;;;;12.50;12.00;;;;;26.38;20.66;98713.06;6181258;28;96939;-69
2021/11/07 10:42:07;;;;;;;;;12.25;12.00;;;;;25.71;21.27;98692.31;6148952;28;96889;-69
2021/11/07 10:45:21;;;;;;;;;11.80;11.00;;;;;25.08;21.92;98701.16;6160252;28;97328;-68
2021/11/07 10:52:03;;;;;;;;;11.00;10.60;;;;;24.85;22.57;98692.13;6159795;28;97416;-69
2021/11/07 10:52:19;;;;;;;;;10.75;9.00;;;;;25.18;22.22;98683.47;6160048;28;96963;-68
2021/11/07 10:55:26;;;;;;;;;12.25;10.50;;;;;25.50;22.06;98679.47;6159932;28;97660;-66
2021/11/07 10:58:33;;;;;;;;;13.00;12.00;;;;;26.04;21.55;98666.94;6159772;28;96563;-66
2021/11/07 11:01:36;;;;;;;;;10.00;10.00;;;;;25.77;21.81;98655.09;6159817;28;97425;-68
2021/11/07 11:05:01;;;;;;;;;10.20;9.00;;;;;25.60;21.98;98648.81;6147705;28;97506;-68
2021/11/07 11:08:08;;;;;;;;;8.00;7.00;;;;;25.42;21.82;98634.16;6161031;28;98848;-68
2021/11/07 11:11:21;;;;;;;;;9.00;8.60;;;;;25.30;22.16;98634.81;6161125;28;96934;-68
2021/11/07 11:14:27;;;;;;;;;9.00;8.00;;;;;24.89;22.43;98631.66;6173717;28;97132;-69
2021/11/07 11:17:42;;;;;;;;;8.33;6.33;;;;;25.11;22.47;98627.97;6212582;28;97642;-68
2021/11/07 11:24:35;;;;;;;;;8.00;7.25;;;;;25.54;22.10;98597.63;6213356;28;96593;-68
2021/11/07 11:27:57;;;;;;;;;8.00;6.00;;;;;26.56;21.01;98602.06;6212556;28;97493;-69
2021/11/07 11:31:15;;;;;;;;;5.00;5.00;;;;;27.05;20.61;98594.13;6193271;28;98193;-69
2021/11/07 11:34:23;;;;;;;;;3.00;2.50;;;;;26.05;20.51;98611.34;6201812;28;97484;-68
2021/11/07 11:37:32;;;;;;;;;3.00;3.00;;;;;24.72;21.74;98593.84;6213305;28;97344;-66
2021/11/07 11:40:46;;;;;;;;;3.00;2.00;;;;;23.86;22.74;98579.69;6213508;28;96389;-67
2021/11/07 11:43:53;;;;;;;;;4.00;3.60;;;;;23.03;23.63;98564.69;6213060;28;97516;-68
2021/11/07 11:47:12;;;;;;;;;4.00;4.00;;;;;22.51;24.62;98563.34;6195051;28;96635;-66
2021/11/07 11:50:32;;;;;;;;;3.00;3.00;;;;;21.89;25.19;98551.91;6212877;28;96939;-66
2021/11/07 11:53:56;;;;;;;;;3.00;3.00;;;;;21.22;26.15;98561.63;6212530;28;97682;-66
2021/11/07 11:57:12;;;;;;;;;4.00;4.00;;;;;20.86;26.80;98549.56;6194818;28;98551;-66
2021/11/07 12:00:30;;;;;;;;;3.75;2.75;;;;;20.53;27.27;98551.38;6213292;28;97533;-66
2021/11/07 12:03:50;;;;;;;;;3.00;3.00;;;;;20.22;27.81;98542.72;6194695;28;97594;-65
2021/11/07 12:07:10;;;;;;;;;3.00;3.00;;;;;19.99;28.34;98533.41;6212719;28;96657;-65
2021/11/07 12:10:32;;;;;;;;;3.00;3.00;;;;;19.85;28.40;98536.03;6178199;28;97742;-67
2021/11/07 12:13:40;;;;;;;;;4.00;4.00;;;;;19.74;28.65;98498.16;6194180;28;99688;-65
2021/11/07 12:16:52;;;;;;;;;4.60;4.00;;;;;19.82;28.63;98520.19;6194285;28;97987;-67
2021/11/07 12:19:55;;;;;;;;;5.00;4.00;;;;;19.63;29.18;98519.31;6212418;28;97608;-67
2021/11/07 12:23:18;;;;;;;;;4.00;4.00;;;;;19.60;29.75;98516.31;6211836;28;96933;-68
2021/11/07 12:26:24;;;;;;;;;4.00;4.00;;;;;19.54;29.52;98515.59;6212396;28;97478;-68
2021/11/07 12:29:37;;;;;;;;;3.25;3.00;;;;;19.26;32.85;98508.16;6211444;28;96443;-66
2021/11/07 12:32:47;;;;;;;;;5.00;4.00;;;;;19.09;30.04;98502.31;6210851;28;96475;-68
2021/11/07 12:35:59;;;;;;;;;4.00;3.40;;;;;18.88;30.10;98504.38;6211532;28;97431;-66
2021/11/07 12:42:25;;;;;;;;;4.00;4.00;;;;;18.53;30.73;98498.06;6211023;28;96520;-68
2021/11/07 12:45:35;;;;;;;;;4.00;3.40;;;;;18.40;30.99;98484.19;6211789;28;97374;-68
2021/11/07 12:48:45;;;;;;;;;4.80;4.80;;;;;18.42;30.97;98490.19;6207285;28;97490;-68
2021/11/07 12:51:51;;;;;;;;;4.00;4.00;;;;;18.50;30.93;98478.69;6186543;28;97013;-66
2021/11/07 12:54:54;;;;;;;;;4.20;4.20;;;;;18.55;30.84;98476.75;6211311;28;96992;-68
2021/11/07 12:57:57;;;;;;;;;4.00;4.00;;;;;18.52;30.90;98479.22;6186980;28;97321;-66
2021/11/07 13:01:00;;;;;;;;;5.60;5.00;;;;;18.41;30.78;98472.19;6207235;28;97450;-69
2021/11/07 13:04:05;;;;;;;;;7.00;6.00;;;;;18.46;31.05;98472.97;6204132;28;98099;-65
2021/11/07 13:07:11;;;;;;;;;5.00;5.00;;;;;18.38;31.16;98465.38;6190579;28;97143;-67
2021/11/07 13:10:22;;;;;;;;;5.00;5.00;;;;;18.23;31.42;98460.00;6196668;28;97282;-66
2021/11/07 13:13:33;;;;;;;;;6.00;6.00;;;;;18.22;31.44;98454.84;6193065;28;97284;-65
2021/11/07 13:16:51;;;;;;;;;5.00;5.00;;;;;18.22;31.49;98452.94;6195448;28;96653;-65
2021/11/07 13:23:51;;;;;;;;;6.00;5.00;;;;;18.34;31.04;98447.94;6192620;28;97999;-66
2021/11/07 13:27:11;;;;;;;;;4.40;4.00;;;;;18.36;31.19;98447.66;6173309;28;98512;-66
2021/11/07 13:30:17;;;;;;;;;5.00;5.00;;;;;18.42;31.20;98458.22;6189584;28;98174;-65
2021/11/07 13:33:24;;;;;;;;;5.40;4.40;;;;;18.46;31.15;98459.31;6180293;28;97792;-68
2021/11/07 13:36:40;;;;;;;;;4.00;3.00;;;;;18.47;31.03;98457.41;6189906;28;96940;-69
2021/11/07 13:39:43;;;;;;;;;5.00;5.00;;;;;18.45;30.74;98452.22;6196158;28;97242;-68
2021/11/07 13:42:47;;;;;;;;;5.40;5.40;;;;;18.37;30.92;98449.28;6204611;28;97188;-68
2021/11/07 13:45:52;;;;;;;;;4.25;4.25;;;;;18.28;30.93;98453.69;6205433;28;97529;-65
2021/11/07 13:49:01;;;;;;;;;3.25;3.25;;;;;18.30;30.89;98451.50;6177860;28;98105;-68
2021/11/07 13:52:08;;;;;;;;;5.00;4.00;;;;;18.33;31.10;98442.75;6193450;28;97438;-69
2021/11/07 13:55:17;;;;;;;;;5.00;4.00;;;;;18.31;31.42;98440.31;6184789;28;98536;-68
2021/11/07 13:58:23;;;;;;;;;5.00;5.00;;;;;18.24;31.38;98439.78;6201889;28;97140;-65
2021/11/07 14:01:31;;;;;;;;;5.00;5.00;;;;;18.31;31.43;98431.31;6194249;28;97712;-66
2021/11/07 14:04:46;;;;;;;;;6.00;5.00;;;;;18.25;31.47;98435.16;6193237;28;97487;-68
2021/11/07 14:08:01;;;;;;;;;5.00;5.00;;;;;18.26;31.47;98426.69;6201766;28;97254;-66
2021/11/07 14:11:04;;;;;;;;;6.00;6.00;;;;;18.24;31.48;98428.88;6173568;28;96997;-67
2021/11/07 14:14:12;;;;;;;;;7.00;6.00;;;;;18.26;31.45;98417.69;6206802;28;97909;-66
2021/11/07 14:17:25;;;;;;;;;7.00;6.00;;;;;18.11;31.08;98419.41;6212789;28;97035;-66
2021/11/07 14:20:37;;;;;;;;;6.75;6.25;;;;;17.99;31.26;98413.47;6212198;28;96974;-67
2021/11/07 14:23:45;;;;;;;;;6.00;5.00;;;;;17.85;31.41;98400.75;6206776;28;97456;-67
2021/11/07 14:26:53;;;;;;;;;7.40;7.00;;;;;17.78;31.32;98405.69;6191579;28;97548;-66
2021/11/07 14:30:00;;;;;;;;;7.00;7.00;;;;;17.68;31.32;98401.91;6198296;28;96903;-68
2021/11/07 14:33:09;;;;;;;;;7.00;6.40;;;;;17.58;31.52;98390.22;6188783;28;97316;-67
2021/11/07 14:36:23;;;;;;;;;5.25;5.00;;;;;17.61;31.48;98384.22;6193857;28;96700;-65
2021/11/07 14:39:42;;;;;;;;;8.40;8.00;;;;;17.46;31.47;98395.97;6180411;28;97929;-64
2021/11/07 14:42:58;;;;;;;;;7.00;7.00;;;;;17.28;31.55;98383.78;6206572;28;97948;-68
2021/11/07 14:46:41;;;;;;;;;5.00;5.00;;;;;17.33;31.48;98402.84;6204205;28;96614;-65
2021/11/07 14:53:06;;;;;;;;;7.00;6.00;;;;;17.28;31.34;98402.03;6194613;28;97224;-65
2021/11/07 14:56:15;;;;;;;;;6.00;6.00;;;;;17.28;31.31;98405.56;6208722;28;97082;-67
2021/11/07 14:59:27;;;;;;;;;6.00;6.00;;;;;17.28;31.11;98396.59;6183120;28;98024;-69
2021/11/07 15:02:43;;;;;;;;;7.00;6.00;;;;;17.19;31.29;98388.16;6166638;28;97769;-66
2021/11/07 15:05:50;;;;;;;;;7.00;6.00;;;;;17.08;31.39;98380.28;6191925;28;97461;-66
2021/11/07 15:08:56;;;;;;;;;6.00;6.00;;;;;17.03;31.65;98380.28;6192531;28;98957;-67
2021/11/07 15:12:16;;;;;;;;;7.80;6.80;;;;;17.05;31.69;98376.22;6211503;28;97409;-66
2021/11/07 15:18:53;;;;;;;;;8.00;6.50;;;;;16.89;31.97;98377.31;6210091;28;97228;-66
2021/11/07 15:22:01;;;;;;;;;7.00;6.00;;;;;16.71;32.19;98364.28;6185403;28;97310;-69
2021/11/07 15:25:07;;;;;;;;;12.00;11.00;;;;;16.80;32.16;98373.53;6190574;28;97865;-66